Latest Weather Observations for King Island Airport

IDT60801

Issued at 6:31 pm EST Monday 30 May 2016 (issued every 30 minutes, with the page automatically refreshed every 10 minutes)

About weather observations | Map of weather stations | Latest weather observations for TAS | Other Formats
Station Details ID: 098017 Name: KING ISLAND AIRPORT Lat: -39.88 Lon: 143.88 Height: 37.0 m
Data from the previous 72 hours. | See also: Recent months at King Island Airport
Date/Time
EST
Temp
°C
App
Temp
°C
Dew
Point
Rel
Hum
%
Delta-T
°C
Wind Press
QNH
hPa
Press
MSL
hPa
Rain
since 9 am
mm
Dir
 
Spd
km/h
Gust
km/h
Spd
kts
Gust
kts
30/06:30pm 9.7 6.8 4.7 71 2.2 NE 9 13 5 7 1028.0 1028.0 0.0
30/06:00pm 10.3 7.2 5.7 73 2.1 ENE 11 15 6 8 1027.7 1027.7 0.0
30/05:30pm 10.6 8.1 6.7 77 1.8 ENE 9 13 5 7 1027.4 1027.4 0.0
30/05:00pm 10.5 7.6 6.6 77 1.8 E 11 17 6 9 1027.1 1027.1 0.0
30/04:30pm 10.1 7.9 6.3 77 1.8 E 7 9 4 5 1026.8 1026.8 0.0
30/04:00pm 10.8 7.4 6.0 72 2.2 E 13 15 7 8 1026.7 1026.7 0.0
30/03:30pm 11.8 8.4 5.9 67 2.8 E 13 15 7 8 1026.5 1026.5 0.0
30/03:00pm 12.7 10.6 5.6 62 3.3 NE 6 9 3 5 1026.4 1026.4 0.0
30/02:30pm 13.4 10.0 6.0 61 3.5 ESE 13 15 7 8 1026.2 1026.2 0.0
30/02:00pm 13.8 10.2 5.2 56 4.0 ESE 13 19 7 10 1026.3 1026.3 0.0
30/01:30pm 13.2 9.5 4.6 56 4.0 ESE 13 17 7 9 1026.5 1026.5 0.0
30/01:00pm 13.2 9.1 4.6 56 3.9 ESE 15 20 8 11 1026.6 1026.6 0.0
30/12:30pm 13.3 10.0 4.5 55 4.0 ESE 11 17 6 9 1026.8 1026.8 0.0
30/12:00pm 13.0 9.3 4.2 55 4.0 E 13 17 7 9 1027.1 1027.1 0.0
30/11:30am 12.8 9.5 4.3 56 3.9 E 11 17 6 9 1027.4 1027.4 0.0
30/11:00am 12.9 10.0 4.8 58 3.7 ENE 9 17 5 9 1027.7 1027.7 0.0
30/10:30am 12.6 10.7 4.8 59 3.6 NE 4 11 2 6 1027.7 1027.7 0.0
30/10:00am 11.0 9.6 5.7 70 2.4 NNE 2 9 1 5 1027.5 1027.5 0.0
30/09:30am 11.3 9.2 5.8 69 2.6 ENE 6 7 3 4 1027.3 1027.3 0.0
30/09:00am 9.1 7.3 5.3 77 1.7 SE 4 9 2 5 1027.1 1027.1 0.0
30/08:30am 7.7 6.6 5.2 84 1.1 CALM 0 0 0 0 1026.9 1026.9 0.0
30/08:00am 7.2 5.3 4.7 84 1.1 ENE 4 7 2 4 1026.5 1026.5 0.0
30/07:30am 7.0 5.3 4.0 81 1.3 NNW 2 11 1 6 1026.3 1026.3 0.0
30/07:00am 7.3 5.0 4.8 84 1.1 E 6 9 3 5 1026.1 1026.1 0.0
30/06:30am 7.1 5.1 4.6 84 1.1 ESE 4 9 2 5 1025.8 1025.8 0.0
30/06:00am 7.0 4.4 4.0 81 1.3 ESE 7 9 4 5 1025.5 1025.5 0.0
30/05:30am 7.5 6.2 4.1 79 1.5 CALM 0 0 0 0 1025.2 1025.2 0.0
30/05:00am 8.4 6.0 4.2 75 1.8 SE 6 7 3 4 1025.0 1025.0 0.0
30/04:30am 7.6 5.2 5.1 84 1.1 SE 7 9 4 5 1024.8 1024.8 0.0
30/04:00am 7.0 4.5 4.7 85 1.0 SE 7 9 4 5 1024.6 1024.6 0.0
30/03:30am 6.8 4.3 4.8 87 0.9 ESE 7 9 4 5 1024.6 1024.6 0.0
30/03:00am 6.8 5.6 4.8 87 0.9 CALM 0 0 0 0 1024.5 1024.5 0.0
30/02:30am 7.0 5.4 4.7 85 1.0 SE 2 7 1 4 1024.5 1024.5 0.0
30/02:00am 7.5 5.2 4.6 82 1.3 SE 6 7 3 4 1024.2 1024.2 0.0
30/01:30am 7.9 6.4 5.2 83 1.2 SE 2 7 1 4 1024.0 1024.0 0.0
30/01:00am 8.1 5.9 5.4 83 1.2 E 6 9 3 5 1023.9 1023.9 0.0
30/12:30am 8.3 7.3 5.4 82 1.3 CALM 0 0 0 0 1023.9 1023.9 0.0
30/12:00am 8.5 6.7 5.4 81 1.4 N 4 7 2 4 1023.9 1023.9 0.0
 
Date/Time
EST
Temp
°C
App
Temp
°C
Dew
Point
Rel
Hum
%
Delta-T
°C
Wind Press
QNH
hPa
Press
MSL
hPa
Rain
since 9 am
mm
Dir
 
Spd
km/h
Gust
km/h
Spd
kts
Gust
kts
29/11:30pm 8.6 7.6 5.7 82 1.3 CALM 0 0 0 0 1023.7 1023.7 0.0
29/11:00pm 8.4 7.4 5.5 82 1.3 CALM 0 0 0 0 1023.6 1023.6 0.0
29/10:30pm 8.7 7.7 5.4 80 1.5 CALM 0 6 0 3 1023.6 1023.6 0.0
29/10:00pm 8.8 7.8 5.4 79 1.5 CALM 0 0 0 0 1023.5 1023.5 0.0
29/09:30pm 8.9 6.8 5.6 80 1.5 ENE 6 7 3 4 1023.4 1023.4 0.0
29/09:00pm 8.9 7.8 4.9 76 1.8 CALM 0 0 0 0 1023.1 1023.1 0.0
29/08:30pm 9.0 6.7 4.8 75 1.9 SE 6 9 3 5 1022.8 1022.8 0.0
29/08:00pm 9.4 6.9 4.8 73 2.0 S 7 9 4 5 1022.8 1022.8 0.0
29/07:30pm 10.1 7.6 4.9 70 2.3 S 7 11 4 6 1022.4 1022.4 0.0
29/07:00pm 10.4 6.3 4.3 66 2.7 SSW 15 20 8 11 1022.1 1022.1 0.0
29/06:30pm 10.6 7.4 4.9 68 2.6 SSW 11 15 6 8 1021.8 1021.8 0.0
29/06:00pm 10.6 7.5 5.4 70 2.4 SSW 11 15 6 8 1021.6 1021.6 0.0
29/05:30pm 10.7 7.5 5.3 69 2.5 SW 11 17 6 9 1021.1 1021.1 0.0
29/05:00pm 10.7 7.1 4.8 67 2.7 SW 13 15 7 8 1021.1 1021.1 0.0
29/04:30pm 10.8 6.8 4.7 66 2.8 WSW 15 19 8 10 1020.9 1020.9 0.0
29/04:00pm 10.7 6.3 4.6 66 2.7 SW 17 28 9 15 1020.8 1020.8 0.0
29/03:30pm 11.4 6.5 5.1 65 2.9 SSW 20 30 11 16 1020.4 1020.4 0.0
29/03:00pm 11.7 6.9 5.8 67 2.7 SW 20 28 11 15 1020.3 1020.3 0.0
29/02:30pm 11.7 6.8 5.1 64 3.0 SSW 20 28 11 15 1020.2 1020.2 0.0
29/02:00pm 11.6 6.6 4.8 63 3.1 SSW 20 30 11 16 1020.1 1020.1 0.0
29/01:30pm 11.9 7.0 5.1 63 3.1 SW 20 33 11 18 1020.0 1020.0 0.0
29/01:00pm 11.6 6.6 4.6 62 3.2 SW 20 28 11 15 1020.1 1020.1 0.0
29/12:30pm 11.9 6.3 5.5 65 3.0 SSW 24 30 13 16 1019.9 1019.9 0.0
29/12:00pm 12.0 6.8 5.6 65 3.0 SW 22 30 12 16 1020.0 1020.0 0.0
29/11:30am 11.9 6.7 5.5 65 3.0 SSW 22 30 12 16 1020.1 1020.1 0.0
29/11:00am 11.8 6.6 5.4 65 3.0 SSW 22 28 12 15 1020.2 1020.2 0.0
29/10:30am 11.6 6.3 4.8 63 3.1 SSW 22 30 12 16 1020.1 1020.1 0.0
29/10:00am 11.5 6.5 4.7 63 3.1 SW 20 28 11 15 1019.9 1019.9 0.0
29/09:30am 11.3 5.2 4.7 64 3.0 SSW 26 39 14 21 1019.7 1019.7 0.0
29/09:00am 11.1 5.8 5.2 67 2.7 SSW 22 30 12 16 1019.3 1019.3 0.4
29/08:30am 10.9 6.0 5.0 67 2.7 SSW 20 28 11 15 1018.9 1018.9 0.4
29/08:00am 10.7 6.2 4.4 65 2.8 SW 17 26 9 14 1018.6 1018.6 0.4
29/07:30am 10.8 5.5 5.1 68 2.6 SW 22 30 12 16 1018.2 1018.2 0.4
29/07:00am 10.5 4.6 4.0 64 2.9 SW 24 35 13 19 1018.1 1018.1 0.4
29/06:30am 10.6 4.7 4.1 64 2.9 SSW 24 32 13 17 1017.8 1017.8 0.4
29/06:00am 11.0 6.7 5.1 67 2.7 SW 17 26 9 14 1017.5 1017.5 0.4
29/05:30am 11.1 5.3 4.6 64 2.9 SW 24 33 13 18 1017.3 1017.3 0.4
29/05:00am 11.3 5.7 5.4 67 2.7 SW 24 32 13 17 1016.9 1016.9 0.4
29/04:30am 11.0 6.7 5.1 67 2.7 SSW 17 22 9 12 1016.6 1016.6 0.4
29/04:00am 10.6 5.2 4.3 65 2.8 SSW 22 30 12 16 1016.6 1016.6 0.4
29/03:30am 11.3 5.7 5.4 67 2.7 SW 24 35 13 19 1016.4 1016.4 0.4
29/03:00am 10.5 5.5 4.4 66 2.7 SW 20 26 11 14 1016.3 1016.3 0.4
29/02:30am 11.0 6.1 5.1 67 2.7 SW 20 28 11 15 1016.2 1016.2 0.4
29/02:00am 10.8 5.4 4.7 66 2.8 SW 22 28 12 15 1016.1 1016.1 0.4
29/01:30am 10.7 6.4 5.3 69 2.5 SW 17 26 9 14 1015.9 1015.9 0.4
29/01:00am 11.1 5.5 5.2 67 2.7 SSW 24 33 13 18 1015.7 1015.7 0.4
29/12:30am 11.4 6.0 6.5 72 2.3 SW 24 33 13 18 1015.6 1015.6 0.4
29/12:00am 11.2 4.4 6.7 74 2.1 SSW 32 43 17 23 1015.6 1015.6 0.4
 
Date/Time
EST
Temp
°C
App
Temp
°C
Dew
Point
Rel
Hum
%
Delta-T
°C
Wind Press
QNH
hPa
Press
MSL
hPa
Rain
since 9 am
mm
Dir
 
Spd
km/h
Gust
km/h
Spd
kts
Gust
kts
28/11:30pm 11.3 6.6 7.8 79 1.7 SW 22 33 12 18 1015.5 1015.5 0.4
28/11:00pm 11.2 5.3 7.3 77 1.9 SW 28 39 15 21 1015.5 1015.5 0.4
28/10:30pm 10.7 6.5 8.1 84 1.3 SSW 20 33 11 18 1015.4 1015.4 0.4
28/10:00pm 10.7 5.1 7.2 79 1.7 SW 26 35 14 19 1015.5 1015.5 0.4
28/09:30pm 10.8 5.2 7.1 78 1.8 SW 26 33 14 18 1015.5 1015.5 0.4
28/09:00pm 10.7 4.7 7.0 78 1.8 SW 28 37 15 20 1015.4 1015.4 0.4
28/08:30pm 11.0 5.7 8.6 85 1.2 SW 26 37 14 20 1015.3 1015.3 0.4
28/08:00pm 10.7 4.9 7.8 82 1.4 SW 28 37 15 20 1015.1 1015.1 0.4
28/07:30pm 10.9 5.5 8.0 82 1.4 SW 26 39 14 21 1014.7 1014.7 0.4
28/07:00pm 10.6 4.5 8.2 85 1.2 SW 30 41 16 22 1014.4 1014.4 0.4
28/06:30pm 10.8 4.4 8.4 85 1.2 SW 32 44 17 24 1014.3 1014.3 0.4
28/06:13pm 10.2 4.5 8.5 89 0.8 SW 28 46 15 25 1014.1 1014.1 0.4
28/06:00pm 10.5 4.4 8.3 86 1.1 SW 30 41 16 22 1014.0 1014.0 0.2
28/05:33pm 10.4 4.4 8.5 88 0.9 SW 30 48 16 26 1013.7 1013.7 0.2
28/05:30pm 10.3 3.9 8.4 88 0.9 SW 32 48 17 26 1013.7 1013.7 0.2
28/05:01pm 10.8 5.2 8.6 86 1.1 SW 28 48 15 26 1013.5 1013.5 0.2
28/05:00pm 10.7 5.1 8.6 87 1.0 SW 28 41 15 22 1013.4 1013.4 0.2
28/04:30pm 10.7 4.7 8.8 88 0.9 SSW 30 41 16 22 1013.2 1013.2 0.2
28/04:03pm 11.9 5.6 7.4 74 2.2 SW 30 50 16 27 1012.9 1012.9 0.0
28/04:00pm 11.8 5.3 6.7 71 2.4 SW 30 41 16 22 1012.8 1012.8 0.0
28/03:30pm 12.0 5.5 6.3 68 2.7 SW 30 41 16 22 1012.5 1012.5 0.0
28/03:00pm 12.3 6.1 6.1 66 2.9 SW 28 37 15 20 1012.4 1012.4 0.0
28/02:30pm 12.4 5.6 6.7 68 2.7 SW 32 48 17 26 1012.2 1012.2 0.0
28/02:00pm 12.2 5.0 5.8 65 3.0 SW 33 41 18 22 1012.0 1012.0 0.0
28/01:30pm 12.3 4.8 6.1 66 2.9 SW 35 50 19 27 1011.9 1011.9 0.0
28/01:00pm 11.8 4.4 6.9 72 2.3 SSW 35 46 19 25 1011.9 1011.9 0.0
28/12:30pm 12.4 4.6 8.1 75 2.1 SSW 39 50 21 27 1011.9 1011.9 0.0
28/12:00pm 11.2 5.5 8.2 82 1.5 SSW 28 43 15 23 1012.0 1012.0 0.0
28/11:49am 11.3 5.1 9.4 88 1.0 SSW 32 50 17 27 1012.1 1012.1 0.0
28/11:30am 11.7 4.5 7.8 77 1.9 SSW 35 43 19 23 1012.3 1012.3 0.0
28/11:00am 11.9 5.3 7.6 75 2.1 SSW 32 44 17 24 1012.4 1012.4 0.0
28/10:30am 12.5 5.8 7.2 70 2.6 SSW 32 46 17 25 1012.3 1012.3 0.0
28/10:00am 11.6 6.8 7.3 75 2.1 SSW 22 32 12 17 1012.0 1012.0 0.0
28/09:30am 11.8 5.7 6.7 71 2.4 SSW 28 39 15 21 1011.8 1011.8 0.0
28/09:00am 11.2 6.3 6.9 75 2.0 S 22 39 12 21 1011.7 1011.7 3.2
28/08:30am 10.9 5.7 5.4 69 2.5 SSW 22 28 12 15 1011.6 1011.6 3.2
28/08:00am 10.6 5.8 5.6 71 2.3 SSW 20 32 11 17 1011.4 1011.4 3.2
28/07:30am 10.4 4.0 5.0 69 2.4 SSW 28 35 15 19 1011.1 1011.1 3.2
28/07:00am 10.2 6.0 5.6 73 2.1 S 17 32 9 17 1010.8 1010.8 3.2
28/06:30am 8.6 4.8 5.9 83 1.2 S 15 22 8 12 1010.5 1010.5 3.2
28/06:00am 8.9 5.4 7.2 89 0.8 S 15 19 8 10 1010.2 1010.2 3.2
28/05:30am 8.9 6.3 7.7 92 0.6 S 11 15 6 8 1009.9 1010.0 3.2
28/05:00am 9.2 6.2 7.8 91 0.7 SSE 13 24 7 13 1009.7 1009.8 3.0
28/04:30am 9.0 5.1 7.0 87 0.9 S 17 26 9 14 1009.6 1009.7 2.6
28/04:00am 7.8 4.7 5.4 85 1.1 SSW 11 15 6 8 1009.3 1009.4 2.6
28/03:30am 7.9 5.2 5.5 85 1.1 S 9 13 5 7 1009.2 1009.3 2.6
28/03:00am 8.0 4.6 6.1 88 0.9 S 13 19 7 10 1009.3 1009.4 2.6
28/02:30am 7.7 4.7 5.8 88 0.9 SSE 11 17 6 9 1009.3 1009.4 2.6
28/02:00am 7.5 4.7 5.1 85 1.1 S 9 13 5 7 1009.2 1009.3 2.6
28/01:30am 7.6 4.5 5.6 87 0.9 S 11 15 6 8 1009.2 1009.3 2.6
28/01:00am 8.1 4.7 6.1 87 0.9 S 13 17 7 9 1009.1 1009.2 2.6
28/12:30am 8.3 5.5 6.8 90 0.7 S 11 15 6 8 1009.2 1009.3 2.6
28/12:00am 8.8 7.2 7.9 94 0.4 SSW 6 13 3 7 1009.3 1009.4 2.6
 
Date/Time
EST
Temp
°C
App
Temp
°C
Dew
Point
Rel
Hum
%
Delta-T
°C
Wind Press
QNH
hPa
Press
MSL
hPa
Rain
since 9 am
mm
Dir
 
Spd
km/h
Gust
km/h
Spd
kts
Gust
kts
27/11:30pm 9.1 7.5 8.2 94 0.4 ESE 6 9 3 5 1009.1 1009.2 2.6
27/11:00pm 9.4 7.4 8.6 95 0.4 ESE 9 11 5 6 1009.0 1009.1 2.4
27/10:30pm 9.2 6.8 8.6 96 0.3 SE 11 15 6 8 1009.2 1009.3 2.4
27/10:19pm 9.4 5.9 8.8 96 0.3 S 17 28 9 15 1009.2 1009.3 2.2
27/10:04pm 9.6 6.2 9.0 96 0.3 S 17 26 9 14 1009.2 1009.3 1.6
27/10:00pm 9.7 7.0 9.1 96 0.3 S 13 22 7 12 1009.2 1009.3 1.4
27/09:30pm 9.1 7.0 8.3 95 0.4 S 9 11 5 6 1008.9 1009.0 1.0
27/09:00pm 9.4 6.2 8.5 94 0.4 S 15 22 8 12 1008.9 1009.0 0.6
27/08:30pm 8.9 6.3 7.7 92 0.6 SSE 11 17 6 9 1008.5 1008.5 0.4
27/08:00pm 8.5 5.4 7.3 92 0.6 SSE 13 17 7 9 1008.2 1008.2 0.4
27/07:30pm 6.7 4.5 5.3 91 0.6 SE 6 7 3 4 1007.9 1007.9 0.4
27/07:00pm 7.4 4.4 5.9 90 0.7 SSE 11 13 6 7 1007.7 1007.7 0.2

Other Formats:

Comma delimited format used in spreadsheet applications
http://www.bom.gov.au/fwo/IDT60801/IDT60801.94850.axf

JavaScript Object Notation format (JSON) in row-major order
http://www.bom.gov.au/fwo/IDT60801/IDT60801.94850.json